sensor_id;sensor_type;location;lat;lon;timestamp;P1;durP1;ratioP1;P2;durP2;ratioP2
65583;SDS011;62116;43.582;1.470;2022-12-31T00:00:27;13.85;;;7.30;;
65583;SDS011;62116;43.582;1.470;2022-12-31T00:02:53;15.93;;;7.47;;
65583;SDS011;62116;43.582;1.470;2022-12-31T00:05:18;14.32;;;7.43;;
65583;SDS011;62116;43.582;1.470;2022-12-31T00:07:43;16.80;;;7.57;;
65583;SDS011;62116;43.582;1.470;2022-12-31T00:10:09;24.15;;;8.25;;
65583;SDS011;62116;43.582;1.470;2022-12-31T00:12:34;17.50;;;7.07;;
65583;SDS011;62116;43.582;1.470;2022-12-31T00:14:59;15.15;;;7.05;;
65583;SDS011;62116;43.582;1.470;2022-12-31T00:17:25;12.75;;;6.70;;
65583;SDS011;62116;43.582;1.470;2022-12-31T00:19:50;17.90;;;7.18;;
65583;SDS011;62116;43.582;1.470;2022-12-31T00:22:16;13.60;;;7.22;;
65583;SDS011;62116;43.582;1.470;2022-12-31T00:24:41;12.32;;;6.32;;
65583;SDS011;62116;43.582;1.470;2022-12-31T00:27:06;17.08;;;7.00;;
65583;SDS011;62116;43.582;1.470;2022-12-31T00:29:32;13.98;;;6.55;;
65583;SDS011;62116;43.582;1.470;2022-12-31T00:31:57;13.93;;;6.57;;
65583;SDS011;62116;43.582;1.470;2022-12-31T00:34:22;16.20;;;7.20;;
65583;SDS011;62116;43.582;1.470;2022-12-31T00:36:48;12.90;;;6.38;;
65583;SDS011;62116;43.582;1.470;2022-12-31T00:39:13;13.40;;;6.90;;
65583;SDS011;62116;43.582;1.470;2022-12-31T00:41:39;14.48;;;6.40;;
65583;SDS011;62116;43.582;1.470;2022-12-31T00:44:04;12.32;;;6.50;;
65583;SDS011;62116;43.582;1.470;2022-12-31T00:46:30;14.52;;;6.80;;
65583;SDS011;62116;43.582;1.470;2022-12-31T00:48:55;14.88;;;6.70;;
65583;SDS011;62116;43.582;1.470;2022-12-31T00:51:22;11.50;;;6.45;;
65583;SDS011;62116;43.582;1.470;2022-12-31T00:53:48;13.45;;;6.80;;
65583;SDS011;62116;43.582;1.470;2022-12-31T00:56:15;15.27;;;6.80;;
65583;SDS011;62116;43.582;1.470;2022-12-31T00:58:42;12.07;;;6.30;;
65583;SDS011;62116;43.582;1.470;2022-12-31T01:01:13;13.13;;;7.20;;
65583;SDS011;62116;43.582;1.470;2022-12-31T01:03:40;12.90;;;6.20;;
65583;SDS011;62116;43.582;1.470;2022-12-31T01:06:06;13.27;;;6.18;;
65583;SDS011;62116;43.582;1.470;2022-12-31T01:08:32;12.55;;;6.85;;
65583;SDS011;62116;43.582;1.470;2022-12-31T01:10:58;15.95;;;7.00;;
65583;SDS011;62116;43.582;1.470;2022-12-31T01:13:42;13.02;;;6.65;;
65583;SDS011;62116;43.582;1.470;2022-12-31T01:16:09;15.20;;;6.70;;
65583;SDS011;62116;43.582;1.470;2022-12-31T01:18:36;12.52;;;6.75;;
65583;SDS011;62116;43.582;1.470;2022-12-31T01:21:03;14.23;;;6.88;;
65583;SDS011;62116;43.582;1.470;2022-12-31T01:23:30;14.65;;;6.85;;
65583;SDS011;62116;43.582;1.470;2022-12-31T01:25:58;12.52;;;6.85;;
65583;SDS011;62116;43.582;1.470;2022-12-31T01:28:25;14.73;;;6.47;;
65583;SDS011;62116;43.582;1.470;2022-12-31T01:30:51;14.73;;;7.55;;
65583;SDS011;62116;43.582;1.470;2022-12-31T01:33:16;15.68;;;6.95;;
65583;SDS011;62116;43.582;1.470;2022-12-31T01:35:41;18.73;;;7.32;;
65583;SDS011;62116;43.582;1.470;2022-12-31T01:38:07;16.42;;;7.63;;
65583;SDS011;62116;43.582;1.470;2022-12-31T01:40:35;17.25;;;7.65;;
65583;SDS011;62116;43.582;1.470;2022-12-31T01:43:02;15.35;;;6.90;;
65583;SDS011;62116;43.582;1.470;2022-12-31T01:45:27;13.32;;;6.90;;
65583;SDS011;62116;43.582;1.470;2022-12-31T01:47:56;14.50;;;7.07;;
65583;SDS011;62116;43.582;1.470;2022-12-31T01:50:24;12.80;;;7.40;;
65583;SDS011;62116;43.582;1.470;2022-12-31T01:52:57;15.07;;;7.43;;
65583;SDS011;62116;43.582;1.470;2022-12-31T01:55:33;12.82;;;7.13;;
65583;SDS011;62116;43.582;1.470;2022-12-31T01:58:35;14.38;;;7.45;;
65583;SDS011;62116;43.582;1.470;2022-12-31T02:00:58;14.07;;;7.13;;
65583;SDS011;62116;43.582;1.470;2022-12-31T02:03:25;15.52;;;7.30;;
65583;SDS011;62116;43.582;1.470;2022-12-31T02:05:55;14.93;;;7.20;;
65583;SDS011;62116;43.582;1.470;2022-12-31T02:08:26;16.60;;;7.40;;
65583;SDS011;62116;43.582;1.470;2022-12-31T02:10:52;17.00;;;7.47;;
65583;SDS011;62116;43.582;1.470;2022-12-31T02:13:17;16.40;;;7.28;;
65583;SDS011;62116;43.582;1.470;2022-12-31T02:15:46;17.20;;;7.80;;
65583;SDS011;62116;43.582;1.470;2022-12-31T02:18:37;13.85;;;6.97;;
65583;SDS011;62116;43.582;1.470;2022-12-31T02:26:55;17.40;;;6.88;;
65583;SDS011;62116;43.582;1.470;2022-12-31T02:31:53;11.40;;;6.60;;
65583;SDS011;62116;43.582;1.470;2022-12-31T02:34:27;16.45;;;6.72;;
65583;SDS011;62116;43.582;1.470;2022-12-31T02:36:58;19.73;;;7.20;;
65583;SDS011;62116;43.582;1.470;2022-12-31T02:39:27;16.42;;;7.10;;
65583;SDS011;62116;43.582;1.470;2022-12-31T02:41:53;12.35;;;6.50;;
65583;SDS011;62116;43.582;1.470;2022-12-31T02:47:14;16.92;;;7.32;;
65583;SDS011;62116;43.582;1.470;2022-12-31T02:49:50;11.02;;;6.80;;
65583;SDS011;62116;43.582;1.470;2022-12-31T02:52:43;15.73;;;6.63;;
65583;SDS011;62116;43.582;1.470;2022-12-31T03:00:29;16.27;;;6.88;;
65583;SDS011;62116;43.582;1.470;2022-12-31T03:03:16;11.55;;;6.20;;
65583;SDS011;62116;43.582;1.470;2022-12-31T03:05:43;13.05;;;6.35;;
65583;SDS011;62116;43.582;1.470;2022-12-31T03:08:19;14.17;;;7.10;;
65583;SDS011;62116;43.582;1.470;2022-12-31T03:10:45;14.90;;;6.88;;
65583;SDS011;62116;43.582;1.470;2022-12-31T03:13:10;13.70;;;6.47;;
65583;SDS011;62116;43.582;1.470;2022-12-31T03:15:36;14.52;;;7.15;;
65583;SDS011;62116;43.582;1.470;2022-12-31T03:20:31;12.32;;;6.97;;
65583;SDS011;62116;43.582;1.470;2022-12-31T03:23:20;14.65;;;6.53;;
65583;SDS011;62116;43.582;1.470;2022-12-31T03:25:48;12.90;;;7.22;;
65583;SDS011;62116;43.582;1.470;2022-12-31T03:28:15;15.88;;;6.78;;
65583;SDS011;62116;43.582;1.470;2022-12-31T03:30:44;12.07;;;6.78;;
65583;SDS011;62116;43.582;1.470;2022-12-31T03:33:11;13.27;;;6.40;;
65583;SDS011;62116;43.582;1.470;2022-12-31T03:35:37;15.18;;;6.45;;
65583;SDS011;62116;43.582;1.470;2022-12-31T03:38:04;14.35;;;6.53;;
65583;SDS011;62116;43.582;1.470;2022-12-31T03:40:30;17.77;;;6.63;;
65583;SDS011;62116;43.582;1.470;2022-12-31T03:42:58;12.38;;;5.82;;
65583;SDS011;62116;43.582;1.470;2022-12-31T03:45:23;15.73;;;6.32;;
65583;SDS011;62116;43.582;1.470;2022-12-31T03:47:49;13.93;;;6.45;;
65583;SDS011;62116;43.582;1.470;2022-12-31T03:50:15;12.43;;;6.10;;
65583;SDS011;62116;43.582;1.470;2022-12-31T03:52:41;15.05;;;6.32;;
65583;SDS011;62116;43.582;1.470;2022-12-31T03:55:07;12.90;;;6.18;;
65583;SDS011;62116;43.582;1.470;2022-12-31T03:57:34;13.27;;;6.55;;
65583;SDS011;62116;43.582;1.470;2022-12-31T03:59:59;15.45;;;6.30;;
65583;SDS011;62116;43.582;1.470;2022-12-31T04:02:25;21.38;;;6.80;;
65583;SDS011;62116;43.582;1.470;2022-12-31T04:04:50;19.05;;;6.30;;
65583;SDS011;62116;43.582;1.470;2022-12-31T04:07:16;15.60;;;6.80;;
65583;SDS011;62116;43.582;1.470;2022-12-31T04:09:41;14.45;;;6.60;;
65583;SDS011;62116;43.582;1.470;2022-12-31T04:12:07;15.73;;;6.70;;
65583;SDS011;62116;43.582;1.470;2022-12-31T04:14:32;16.67;;;6.28;;
65583;SDS011;62116;43.582;1.470;2022-12-31T04:16:57;14.10;;;6.30;;
65583;SDS011;62116;43.582;1.470;2022-12-31T04:19:23;14.52;;;6.18;;
65583;SDS011;62116;43.582;1.470;2022-12-31T04:21:48;10.90;;;5.50;;
65583;SDS011;62116;43.582;1.470;2022-12-31T04:24:14;13.82;;;6.53;;
65583;SDS011;62116;43.582;1.470;2022-12-31T04:26:39;14.30;;;6.40;;
65583;SDS011;62116;43.582;1.470;2022-12-31T04:29:05;13.68;;;6.30;;
65583;SDS011;62116;43.582;1.470;2022-12-31T04:31:30;16.80;;;6.68;;
65583;SDS011;62116;43.582;1.470;2022-12-31T04:33:56;12.68;;;6.30;;
65583;SDS011;62116;43.582;1.470;2022-12-31T04:36:21;13.35;;;6.32;;
65583;SDS011;62116;43.582;1.470;2022-12-31T04:38:47;13.48;;;6.35;;
65583;SDS011;62116;43.582;1.470;2022-12-31T04:41:12;14.25;;;6.70;;
65583;SDS011;62116;43.582;1.470;2022-12-31T04:43:47;12.40;;;6.63;;
65583;SDS011;62116;43.582;1.470;2022-12-31T04:46:19;14.00;;;6.13;;
65583;SDS011;62116;43.582;1.470;2022-12-31T04:48:49;14.68;;;6.72;;
65583;SDS011;62116;43.582;1.470;2022-12-31T04:51:15;10.95;;;5.63;;
65583;SDS011;62116;43.582;1.470;2022-12-31T04:53:41;14.48;;;6.35;;
65583;SDS011;62116;43.582;1.470;2022-12-31T04:56:06;11.60;;;5.95;;
65583;SDS011;62116;43.582;1.470;2022-12-31T04:58:33;14.43;;;6.10;;
65583;SDS011;62116;43.582;1.470;2022-12-31T05:00:59;14.30;;;6.22;;
65583;SDS011;62116;43.582;1.470;2022-12-31T05:03:25;11.95;;;6.03;;
65583;SDS011;62116;43.582;1.470;2022-12-31T05:05:51;16.90;;;6.38;;
65583;SDS011;62116;43.582;1.470;2022-12-31T05:08:17;12.68;;;5.95;;
65583;SDS011;62116;43.582;1.470;2022-12-31T05:10:44;12.98;;;6.05;;
65583;SDS011;62116;43.582;1.470;2022-12-31T05:13:11;9.73;;;5.35;;
65583;SDS011;62116;43.582;1.470;2022-12-31T05:15:37;17.77;;;6.35;;
65583;SDS011;62116;43.582;1.470;2022-12-31T05:18:03;14.07;;;5.72;;
65583;SDS011;62116;43.582;1.470;2022-12-31T05:20:29;15.00;;;6.28;;
65583;SDS011;62116;43.582;1.470;2022-12-31T05:22:54;14.95;;;6.35;;
65583;SDS011;62116;43.582;1.470;2022-12-31T05:25:20;14.63;;;6.20;;
65583;SDS011;62116;43.582;1.470;2022-12-31T05:27:45;13.27;;;5.85;;
65583;SDS011;62116;43.582;1.470;2022-12-31T05:30:11;12.50;;;5.75;;
65583;SDS011;62116;43.582;1.470;2022-12-31T05:32:37;14.30;;;6.30;;
65583;SDS011;62116;43.582;1.470;2022-12-31T05:35:03;17.13;;;6.25;;
65583;SDS011;62116;43.582;1.470;2022-12-31T05:37:29;19.98;;;6.57;;
65583;SDS011;62116;43.582;1.470;2022-12-31T05:39:55;14.52;;;6.78;;
65583;SDS011;62116;43.582;1.470;2022-12-31T05:42:21;13.32;;;6.53;;
65583;SDS011;62116;43.582;1.470;2022-12-31T05:44:46;16.90;;;6.55;;
65583;SDS011;62116;43.582;1.470;2022-12-31T05:47:12;14.40;;;6.57;;
65583;SDS011;62116;43.582;1.470;2022-12-31T05:49:38;14.57;;;6.28;;
65583;SDS011;62116;43.582;1.470;2022-12-31T05:52:03;12.95;;;6.63;;
65583;SDS011;62116;43.582;1.470;2022-12-31T05:54:29;15.85;;;6.68;;
65583;SDS011;62116;43.582;1.470;2022-12-31T05:56:54;15.93;;;6.50;;
65583;SDS011;62116;43.582;1.470;2022-12-31T05:59:19;18.00;;;6.40;;
65583;SDS011;62116;43.582;1.470;2022-12-31T06:01:45;14.93;;;6.72;;
65583;SDS011;62116;43.582;1.470;2022-12-31T06:04:10;14.10;;;6.53;;
65583;SDS011;62116;43.582;1.470;2022-12-31T06:06:36;14.63;;;6.30;;
65583;SDS011;62116;43.582;1.470;2022-12-31T06:09:01;12.98;;;6.18;;
65583;SDS011;62116;43.582;1.470;2022-12-31T06:11:27;15.77;;;6.05;;
65583;SDS011;62116;43.582;1.470;2022-12-31T06:13:52;15.43;;;6.18;;
65583;SDS011;62116;43.582;1.470;2022-12-31T06:16:18;16.02;;;6.45;;
65583;SDS011;62116;43.582;1.470;2022-12-31T06:18:45;15.40;;;5.88;;
65583;SDS011;62116;43.582;1.470;2022-12-31T06:21:11;18.20;;;6.43;;
65583;SDS011;62116;43.582;1.470;2022-12-31T06:23:38;18.67;;;5.95;;
65583;SDS011;62116;43.582;1.470;2022-12-31T06:26:04;12.25;;;5.90;;
65583;SDS011;62116;43.582;1.470;2022-12-31T06:28:31;15.55;;;6.10;;
65583;SDS011;62116;43.582;1.470;2022-12-31T06:31:04;14.40;;;6.05;;
65583;SDS011;62116;43.582;1.470;2022-12-31T06:33:31;15.07;;;6.30;;
65583;SDS011;62116;43.582;1.470;2022-12-31T06:35:58;14.73;;;5.65;;
65583;SDS011;62116;43.582;1.470;2022-12-31T06:38:25;14.15;;;6.18;;
65583;SDS011;62116;43.582;1.470;2022-12-31T06:40:51;14.05;;;5.97;;
65583;SDS011;62116;43.582;1.470;2022-12-31T06:43:17;12.07;;;5.72;;
65583;SDS011;62116;43.582;1.470;2022-12-31T06:45:42;10.80;;;5.57;;
65583;SDS011;62116;43.582;1.470;2022-12-31T06:48:08;13.25;;;5.65;;
65583;SDS011;62116;43.582;1.470;2022-12-31T06:50:33;15.02;;;6.03;;
65583;SDS011;62116;43.582;1.470;2022-12-31T06:52:59;11.18;;;5.68;;
65583;SDS011;62116;43.582;1.470;2022-12-31T06:55:24;14.93;;;5.35;;
65583;SDS011;62116;43.582;1.470;2022-12-31T06:57:50;9.32;;;5.30;;
65583;SDS011;62116;43.582;1.470;2022-12-31T07:00:16;13.63;;;5.78;;
65583;SDS011;62116;43.582;1.470;2022-12-31T07:11:17;12.65;;;5.60;;
65583;SDS011;62116;43.582;1.470;2022-12-31T07:17:18;14.85;;;5.63;;
65583;SDS011;62116;43.582;1.470;2022-12-31T07:21:57;12.63;;;5.30;;
65583;SDS011;62116;43.582;1.470;2022-12-31T07:24:23;12.60;;;5.60;;
65583;SDS011;62116;43.582;1.470;2022-12-31T07:46:16;13.00;;;4.70;;
65583;SDS011;62116;43.582;1.470;2022-12-31T07:48:50;10.80;;;5.15;;
65583;SDS011;62116;43.582;1.470;2022-12-31T07:51:15;12.38;;;4.90;;
65583;SDS011;62116;43.582;1.470;2022-12-31T07:53:41;11.23;;;4.70;;
65583;SDS011;62116;43.582;1.470;2022-12-31T07:56:07;11.38;;;4.78;;
65583;SDS011;62116;43.582;1.470;2022-12-31T08:01:08;15.52;;;5.38;;
65583;SDS011;62116;43.582;1.470;2022-12-31T08:09:16;9.07;;;4.50;;
65583;SDS011;62116;43.582;1.470;2022-12-31T08:12:17;10.90;;;4.90;;
65583;SDS011;62116;43.582;1.470;2022-12-31T08:14:45;13.98;;;4.88;;
65583;SDS011;62116;43.582;1.470;2022-12-31T08:17:12;15.02;;;4.90;;
65583;SDS011;62116;43.582;1.470;2022-12-31T08:19:38;11.02;;;4.88;;
65583;SDS011;62116;43.582;1.470;2022-12-31T08:27:23;9.32;;;4.60;;
65583;SDS011;62116;43.582;1.470;2022-12-31T08:29:54;12.70;;;4.75;;
65583;SDS011;62116;43.582;1.470;2022-12-31T08:32:45;9.10;;;4.30;;
65583;SDS011;62116;43.582;1.470;2022-12-31T08:38:16;9.23;;;4.22;;
65583;SDS011;62116;43.582;1.470;2022-12-31T08:44:16;10.35;;;4.80;;
65583;SDS011;62116;43.582;1.470;2022-12-31T08:49:31;12.30;;;5.00;;
65583;SDS011;62116;43.582;1.470;2022-12-31T08:51:59;11.27;;;4.60;;
65583;SDS011;62116;43.582;1.470;2022-12-31T08:54:25;11.98;;;4.70;;
65583;SDS011;62116;43.582;1.470;2022-12-31T09:10:49;11.38;;;5.03;;
65583;SDS011;62116;43.582;1.470;2022-12-31T09:16:18;13.27;;;5.00;;
65583;SDS011;62116;43.582;1.470;2022-12-31T09:18:52;11.80;;;4.53;;
65583;SDS011;62116;43.582;1.470;2022-12-31T09:21:17;13.23;;;4.60;;
65583;SDS011;62116;43.582;1.470;2022-12-31T09:23:43;11.95;;;4.15;;
65583;SDS011;62116;43.582;1.470;2022-12-31T09:29:58;12.05;;;4.38;;
65583;SDS011;62116;43.582;1.470;2022-12-31T09:31:52;10.00;;;4.20;;
65583;SDS011;62116;43.582;1.470;2022-12-31T09:34:35;9.63;;;3.85;;
65583;SDS011;62116;43.582;1.470;2022-12-31T09:37:09;10.70;;;4.13;;
65583;SDS011;62116;43.582;1.470;2022-12-31T09:39:44;10.30;;;4.00;;
65583;SDS011;62116;43.582;1.470;2022-12-31T09:54:06;9.98;;;3.83;;
65583;SDS011;62116;43.582;1.470;2022-12-31T09:56:46;10.57;;;3.85;;
65583;SDS011;62116;43.582;1.470;2022-12-31T10:08:09;11.45;;;4.45;;
65583;SDS011;62116;43.582;1.470;2022-12-31T10:13:31;12.90;;;4.25;;
65583;SDS011;62116;43.582;1.470;2022-12-31T10:16:40;12.10;;;4.00;;
65583;SDS011;62116;43.582;1.470;2022-12-31T10:30:07;10.30;;;3.88;;
65583;SDS011;62116;43.582;1.470;2022-12-31T10:52:21;8.82;;;4.22;;
65583;SDS011;62116;43.582;1.470;2022-12-31T11:31:34;9.20;;;3.80;;
65583;SDS011;62116;43.582;1.470;2022-12-31T11:44:59;10.27;;;4.07;;
65583;SDS011;62116;43.582;1.470;2022-12-31T11:58:17;9.73;;;3.78;;
65583;SDS011;62116;43.582;1.470;2022-12-31T12:01:03;10.90;;;3.70;;
65583;SDS011;62116;43.582;1.470;2022-12-31T12:03:32;7.05;;;3.63;;
65583;SDS011;62116;43.582;1.470;2022-12-31T12:06:02;7.07;;;3.63;;
65583;SDS011;62116;43.582;1.470;2022-12-31T12:08:29;5.57;;;3.33;;
65583;SDS011;62116;43.582;1.470;2022-12-31T12:10:59;9.50;;;3.60;;
65583;SDS011;62116;43.582;1.470;2022-12-31T12:13:30;9.60;;;3.60;;
65583;SDS011;62116;43.582;1.470;2022-12-31T12:15:56;13.98;;;3.80;;
65583;SDS011;62116;43.582;1.470;2022-12-31T12:20:59;8.13;;;3.72;;
65583;SDS011;62116;43.582;1.470;2022-12-31T12:23:27;8.45;;;3.35;;
65583;SDS011;62116;43.582;1.470;2022-12-31T12:25:53;6.95;;;3.15;;
65583;SDS011;62116;43.582;1.470;2022-12-31T12:28:23;9.57;;;3.75;;
65583;SDS011;62116;43.582;1.470;2022-12-31T12:30:53;8.60;;;3.70;;
65583;SDS011;62116;43.582;1.470;2022-12-31T12:33:18;8.10;;;3.55;;
65583;SDS011;62116;43.582;1.470;2022-12-31T12:35:44;9.55;;;3.70;;
65583;SDS011;62116;43.582;1.470;2022-12-31T12:38:14;8.25;;;3.55;;
65583;SDS011;62116;43.582;1.470;2022-12-31T12:40:55;10.50;;;3.70;;
65583;SDS011;62116;43.582;1.470;2022-12-31T12:43:24;7.70;;;3.53;;
65583;SDS011;62116;43.582;1.470;2022-12-31T12:45:58;11.70;;;3.67;;
65583;SDS011;62116;43.582;1.470;2022-12-31T12:56:37;6.55;;;2.95;;
65583;SDS011;62116;43.582;1.470;2022-12-31T12:59:25;6.63;;;3.42;;
65583;SDS011;62116;43.582;1.470;2022-12-31T13:20:25;9.90;;;3.80;;
65583;SDS011;62116;43.582;1.470;2022-12-31T13:25:45;7.13;;;3.20;;
65583;SDS011;62116;43.582;1.470;2022-12-31T13:28:20;8.43;;;3.20;;
65583;SDS011;62116;43.582;1.470;2022-12-31T13:30:48;9.20;;;3.55;;
65583;SDS011;62116;43.582;1.470;2022-12-31T13:33:24;7.32;;;3.40;;
65583;SDS011;62116;43.582;1.470;2022-12-31T13:35:58;8.52;;;3.67;;
65583;SDS011;62116;43.582;1.470;2022-12-31T13:38:31;6.70;;;2.97;;
65583;SDS011;62116;43.582;1.470;2022-12-31T13:41:04;8.57;;;3.03;;
65583;SDS011;62116;43.582;1.470;2022-12-31T13:43:55;7.03;;;2.90;;
65583;SDS011;62116;43.582;1.470;2022-12-31T13:46:25;9.93;;;3.25;;
65583;SDS011;62116;43.582;1.470;2022-12-31T13:49:04;13.27;;;3.47;;
65583;SDS011;62116;43.582;1.470;2022-12-31T13:51:50;7.40;;;3.30;;
65583;SDS011;62116;43.582;1.470;2022-12-31T13:56:56;6.47;;;3.08;;
65583;SDS011;62116;43.582;1.470;2022-12-31T13:59:37;6.18;;;2.92;;
65583;SDS011;62116;43.582;1.470;2022-12-31T14:02:15;5.70;;;3.08;;
65583;SDS011;62116;43.582;1.470;2022-12-31T14:04:49;6.60;;;2.95;;
65583;SDS011;62116;43.582;1.470;2022-12-31T14:07:37;7.28;;;3.00;;
65583;SDS011;62116;43.582;1.470;2022-12-31T14:10:10;8.15;;;3.25;;
65583;SDS011;62116;43.582;1.470;2022-12-31T14:12:55;6.78;;;3.00;;
65583;SDS011;62116;43.582;1.470;2022-12-31T14:15:32;8.45;;;3.20;;
65583;SDS011;62116;43.582;1.470;2022-12-31T14:20:46;6.20;;;2.83;;
65583;SDS011;62116;43.582;1.470;2022-12-31T14:23:19;5.95;;;2.85;;
65583;SDS011;62116;43.582;1.470;2022-12-31T14:25:59;8.07;;;3.00;;
65583;SDS011;62116;43.582;1.470;2022-12-31T14:31:05;6.88;;;3.20;;
65583;SDS011;62116;43.582;1.470;2022-12-31T14:33:56;7.65;;;3.00;;
65583;SDS011;62116;43.582;1.470;2022-12-31T14:36:35;7.53;;;2.95;;
65583;SDS011;62116;43.582;1.470;2022-12-31T14:39:51;8.55;;;3.25;;
65583;SDS011;62116;43.582;1.470;2022-12-31T14:42:30;11.38;;;2.90;;
65583;SDS011;62116;43.582;1.470;2022-12-31T14:50:33;8.82;;;3.05;;
65583;SDS011;62116;43.582;1.470;2022-12-31T14:57:52;11.32;;;3.40;;
65583;SDS011;62116;43.582;1.470;2022-12-31T15:02:50;9.38;;;3.53;;
65583;SDS011;62116;43.582;1.470;2022-12-31T15:05:22;9.93;;;3.58;;
65583;SDS011;62116;43.582;1.470;2022-12-31T15:07:52;9.98;;;3.50;;
65583;SDS011;62116;43.582;1.470;2022-12-31T15:18:46;12.80;;;4.05;;
65583;SDS011;62116;43.582;1.470;2022-12-31T15:21:32;10.13;;;4.00;;
65583;SDS011;62116;43.582;1.470;2022-12-31T15:23:59;12.13;;;4.10;;
65583;SDS011;62116;43.582;1.470;2022-12-31T15:26:26;12.23;;;4.13;;
65583;SDS011;62116;43.582;1.470;2022-12-31T15:29:05;12.13;;;4.05;;
65583;SDS011;62116;43.582;1.470;2022-12-31T15:31:33;12.52;;;4.03;;
65583;SDS011;62116;43.582;1.470;2022-12-31T15:36:30;9.77;;;3.88;;
65583;SDS011;62116;43.582;1.470;2022-12-31T15:39:05;9.27;;;4.03;;
65583;SDS011;62116;43.582;1.470;2022-12-31T15:41:38;17.33;;;4.53;;
65583;SDS011;62116;43.582;1.470;2022-12-31T15:44:14;13.30;;;3.97;;
65583;SDS011;62116;43.582;1.470;2022-12-31T15:46:48;9.90;;;4.05;;
65583;SDS011;62116;43.582;1.470;2022-12-31T15:51:59;8.30;;;3.95;;
65583;SDS011;62116;43.582;1.470;2022-12-31T15:55:12;11.23;;;4.53;;
65583;SDS011;62116;43.582;1.470;2022-12-31T15:57:19;13.25;;;4.20;;
65583;SDS011;62116;43.582;1.470;2022-12-31T15:59:58;11.48;;;4.22;;
65583;SDS011;62116;43.582;1.470;2022-12-31T16:02:25;7.32;;;3.97;;
65583;SDS011;62116;43.582;1.470;2022-12-31T16:04:52;11.48;;;4.15;;
65583;SDS011;62116;43.582;1.470;2022-12-31T16:07:21;8.73;;;4.00;;
65583;SDS011;62116;43.582;1.470;2022-12-31T16:09:50;13.77;;;4.43;;
65583;SDS011;62116;43.582;1.470;2022-12-31T16:12:24;10.57;;;4.20;;
65583;SDS011;62116;43.582;1.470;2022-12-31T16:14:53;10.35;;;4.70;;
65583;SDS011;62116;43.582;1.470;2022-12-31T16:17:25;13.20;;;4.43;;
65583;SDS011;62116;43.582;1.470;2022-12-31T16:19:52;11.38;;;4.30;;
65583;SDS011;62116;43.582;1.470;2022-12-31T16:22:23;12.07;;;4.10;;
65583;SDS011;62116;43.582;1.470;2022-12-31T16:24:54;8.27;;;4.10;;
65583;SDS011;62116;43.582;1.470;2022-12-31T16:27:21;8.13;;;4.10;;
65583;SDS011;62116;43.582;1.470;2022-12-31T16:29:49;9.57;;;4.03;;
65583;SDS011;62116;43.582;1.470;2022-12-31T16:32:21;8.00;;;3.75;;
65583;SDS011;62116;43.582;1.470;2022-12-31T16:34:47;10.85;;;4.03;;
65583;SDS011;62116;43.582;1.470;2022-12-31T16:37:13;8.90;;;4.05;;
65583;SDS011;62116;43.582;1.470;2022-12-31T16:42:22;7.60;;;4.20;;
65583;SDS011;62116;43.582;1.470;2022-12-31T16:44:52;8.55;;;3.85;;
65583;SDS011;62116;43.582;1.470;2022-12-31T16:47:20;9.13;;;3.78;;
65583;SDS011;62116;43.582;1.470;2022-12-31T16:49:54;6.40;;;3.70;;
65583;SDS011;62116;43.582;1.470;2022-12-31T16:52:31;12.40;;;4.45;;
65583;SDS011;62116;43.582;1.470;2022-12-31T16:54:59;10.85;;;4.30;;
65583;SDS011;62116;43.582;1.470;2022-12-31T16:57:26;10.98;;;4.70;;
65583;SDS011;62116;43.582;1.470;2022-12-31T16:59:54;7.72;;;3.90;;
65583;SDS011;62116;43.582;1.470;2022-12-31T17:02:26;10.43;;;4.35;;
65583;SDS011;62116;43.582;1.470;2022-12-31T17:04:59;11.27;;;4.63;;
65583;SDS011;62116;43.582;1.470;2022-12-31T17:10:00;12.00;;;4.53;;
65583;SDS011;62116;43.582;1.470;2022-12-31T17:12:26;11.55;;;4.97;;
65583;SDS011;62116;43.582;1.470;2022-12-31T17:14:53;10.68;;;4.80;;
65583;SDS011;62116;43.582;1.470;2022-12-31T17:17:26;11.43;;;4.90;;
65583;SDS011;62116;43.582;1.470;2022-12-31T17:19:57;12.10;;;5.00;;
65583;SDS011;62116;43.582;1.470;2022-12-31T17:22:32;11.82;;;5.03;;
65583;SDS011;62116;43.582;1.470;2022-12-31T17:25:06;8.43;;;4.78;;
65583;SDS011;62116;43.582;1.470;2022-12-31T17:30:46;10.98;;;5.00;;
65583;SDS011;62116;43.582;1.470;2022-12-31T17:35:44;15.50;;;5.50;;
65583;SDS011;62116;43.582;1.470;2022-12-31T17:40:41;11.50;;;5.45;;
65583;SDS011;62116;43.582;1.470;2022-12-31T17:43:09;13.93;;;5.50;;
65583;SDS011;62116;43.582;1.470;2022-12-31T17:45:36;11.70;;;5.30;;
65583;SDS011;62116;43.582;1.470;2022-12-31T17:48:02;14.45;;;5.53;;
65583;SDS011;62116;43.582;1.470;2022-12-31T17:50:28;11.75;;;5.43;;
65583;SDS011;62116;43.582;1.470;2022-12-31T17:53:12;17.23;;;5.45;;
65583;SDS011;62116;43.582;1.470;2022-12-31T17:55:37;9.27;;;5.28;;
65583;SDS011;62116;43.582;1.470;2022-12-31T17:58:04;14.57;;;5.70;;
65583;SDS011;62116;43.582;1.470;2022-12-31T18:00:30;13.25;;;5.68;;
65583;SDS011;62116;43.582;1.470;2022-12-31T18:03:00;13.80;;;6.18;;
65583;SDS011;62116;43.582;1.470;2022-12-31T18:05:25;14.27;;;5.97;;
65583;SDS011;62116;43.582;1.470;2022-12-31T18:07:51;15.48;;;6.07;;
65583;SDS011;62116;43.582;1.470;2022-12-31T18:10:17;12.52;;;6.43;;
65583;SDS011;62116;43.582;1.470;2022-12-31T18:12:45;14.32;;;6.45;;
65583;SDS011;62116;43.582;1.470;2022-12-31T18:15:14;16.20;;;6.72;;
65583;SDS011;62116;43.582;1.470;2022-12-31T18:17:41;13.10;;;6.00;;
65583;SDS011;62116;43.582;1.470;2022-12-31T18:20:07;18.35;;;6.75;;
65583;SDS011;62116;43.582;1.470;2022-12-31T18:22:33;12.30;;;6.60;;
65583;SDS011;62116;43.582;1.470;2022-12-31T18:24:58;16.30;;;6.57;;
65583;SDS011;62116;43.582;1.470;2022-12-31T18:27:24;13.23;;;6.63;;
65583;SDS011;62116;43.582;1.470;2022-12-31T18:29:50;15.10;;;6.60;;
65583;SDS011;62116;43.582;1.470;2022-12-31T18:32:22;14.32;;;6.60;;
65583;SDS011;62116;43.582;1.470;2022-12-31T18:34:50;17.90;;;6.90;;
65583;SDS011;62116;43.582;1.470;2022-12-31T18:37:16;16.52;;;7.50;;
65583;SDS011;62116;43.582;1.470;2022-12-31T18:39:42;15.68;;;7.40;;
65583;SDS011;62116;43.582;1.470;2022-12-31T18:42:14;17.45;;;7.03;;
65583;SDS011;62116;43.582;1.470;2022-12-31T18:44:42;15.82;;;6.93;;
65583;SDS011;62116;43.582;1.470;2022-12-31T18:47:12;16.30;;;6.97;;
65583;SDS011;62116;43.582;1.470;2022-12-31T18:49:41;20.05;;;7.10;;
65583;SDS011;62116;43.582;1.470;2022-12-31T18:52:12;14.43;;;7.00;;
65583;SDS011;62116;43.582;1.470;2022-12-31T18:54:43;16.13;;;7.10;;
65583;SDS011;62116;43.582;1.470;2022-12-31T18:57:11;19.58;;;7.25;;
65583;SDS011;62116;43.582;1.470;2022-12-31T18:59:38;16.70;;;6.82;;
65583;SDS011;62116;43.582;1.470;2022-12-31T19:02:04;13.18;;;6.95;;
65583;SDS011;62116;43.582;1.470;2022-12-31T19:04:38;17.38;;;7.43;;
65583;SDS011;62116;43.582;1.470;2022-12-31T19:07:04;32.53;;;16.27;;
65583;SDS011;62116;43.582;1.470;2022-12-31T19:09:29;24.92;;;9.60;;
65583;SDS011;62116;43.582;1.470;2022-12-31T19:11:54;17.48;;;8.38;;
65583;SDS011;62116;43.582;1.470;2022-12-31T19:14:22;17.95;;;8.23;;
65583;SDS011;62116;43.582;1.470;2022-12-31T19:16:49;18.42;;;8.00;;
65583;SDS011;62116;43.582;1.470;2022-12-31T19:19:16;18.98;;;7.53;;
65583;SDS011;62116;43.582;1.470;2022-12-31T19:21:41;16.25;;;7.93;;
65583;SDS011;62116;43.582;1.470;2022-12-31T19:24:11;17.52;;;7.72;;
65583;SDS011;62116;43.582;1.470;2022-12-31T19:26:38;22.42;;;8.25;;
65583;SDS011;62116;43.582;1.470;2022-12-31T19:29:04;19.48;;;7.72;;
65583;SDS011;62116;43.582;1.470;2022-12-31T19:31:30;15.05;;;7.90;;
65583;SDS011;62116;43.582;1.470;2022-12-31T19:33:55;23.73;;;7.95;;
65583;SDS011;62116;43.582;1.470;2022-12-31T19:36:20;17.58;;;8.43;;
65583;SDS011;62116;43.582;1.470;2022-12-31T19:38:46;20.00;;;8.10;;